createdAt,value
2023-03-16T00:01:05.343Z,94646.77
2023-03-16T00:03:33.896Z,94644.90
2023-03-16T00:06:02.020Z,94643.15
2023-03-16T00:08:30.138Z,94642.85
2023-03-16T00:10:58.736Z,94642.02
2023-03-16T00:13:27.675Z,94643.30
2023-03-16T00:15:59.678Z,94647.83
2023-03-16T00:18:29.144Z,94653.60
2023-03-16T00:21:05.509Z,94652.50
2023-03-16T00:23:36.079Z,94656.91
2023-03-16T00:26:07.674Z,94653.85
2023-03-16T00:28:36.469Z,94657.42
2023-03-16T00:31:07.070Z,94661.23
2023-03-16T00:33:35.493Z,94662.20
2023-03-16T00:36:09.601Z,94662.41
2023-03-16T00:38:40.619Z,94662.00
2023-03-16T00:41:09.305Z,94662.96
2023-03-16T00:43:43.933Z,94665.54
2023-03-16T00:46:17.354Z,94667.06
2023-03-16T00:48:47.366Z,94671.10
2023-03-16T00:51:18.303Z,94668.03
2023-03-16T00:53:46.741Z,94671.45
2023-03-16T00:56:15.460Z,94668.73
2023-03-16T00:58:44.119Z,94665.35
2023-03-16T01:01:19.048Z,94666.86
2023-03-16T01:03:47.442Z,94671.41
2023-03-16T01:06:17.414Z,94666.10
2023-03-16T01:08:45.822Z,94664.69
2023-03-16T01:11:17.232Z,94665.36
2023-03-16T01:13:49.367Z,94671.33
2023-03-16T01:16:23.401Z,94677.44
2023-03-16T01:18:52.840Z,94679.77
2023-03-16T01:21:22.062Z,94681.50
2023-03-16T01:23:53.939Z,94679.67
2023-03-16T01:26:23.292Z,94681.09
2023-03-16T01:28:51.775Z,94684.14
2023-03-16T01:31:19.999Z,94685.31
2023-03-16T01:33:48.195Z,94684.80
2023-03-16T01:36:21.669Z,94683.70
2023-03-16T01:39:00.325Z,94686.11
2023-03-16T01:41:32.392Z,94693.42
2023-03-16T01:44:00.504Z,94697.73
2023-03-16T01:46:30.144Z,94698.77
2023-03-16T01:49:08.203Z,94705.42
2023-03-16T01:51:43.967Z,94708.05
2023-03-16T01:54:14.756Z,94710.26
2023-03-16T01:56:55.348Z,94708.40
2023-03-16T01:59:32.225Z,94713.94
2023-03-16T02:02:02.621Z,94715.26
2023-03-16T02:04:44.805Z,94715.48
2023-03-16T02:07:17.321Z,94720.16
2023-03-16T02:09:49.233Z,94723.98
2023-03-16T02:12:19.227Z,94724.63
2023-03-16T02:14:52.195Z,94726.48
2023-03-16T02:17:31.924Z,94726.64
2023-03-16T02:20:31.587Z,94728.27
2023-03-16T02:23:00.608Z,94726.08
2023-03-16T02:25:49.062Z,94730.12
2023-03-16T02:28:20.222Z,94732.85
2023-03-16T02:30:49.653Z,94732.69
2023-03-16T02:33:19.766Z,94738.02
2023-03-16T02:35:47.831Z,94738.11
2023-03-16T02:38:15.876Z,94740.61
2023-03-16T02:40:59.740Z,94740.70
2023-03-16T02:43:33.675Z,94744.89
2023-03-16T02:46:11.393Z,94751.69
2023-03-16T02:48:53.487Z,94749.73
2023-03-16T02:51:21.564Z,94757.41
2023-03-16T02:53:49.610Z,94758.27
2023-03-16T02:56:18.025Z,94762.11
2023-03-16T02:58:46.654Z,94760.65
2023-03-16T03:01:17.511Z,94765.74
2023-03-16T03:03:45.641Z,94771.89
2023-03-16T03:06:13.706Z,94771.55
2023-03-16T03:08:42.804Z,94774.73
2023-03-16T03:11:11.104Z,94771.19
2023-03-16T03:13:39.366Z,94774.14
2023-03-16T03:16:12.064Z,94776.50
2023-03-16T03:18:40.161Z,94776.66
2023-03-16T03:21:08.440Z,94779.48
2023-03-16T03:23:36.755Z,94782.56
2023-03-16T03:26:05.167Z,94780.36
2023-03-16T03:28:36.432Z,94780.41
2023-03-16T03:31:04.545Z,94786.23
2023-03-16T03:33:33.877Z,94787.69
2023-03-16T03:36:04.365Z,94787.84
2023-03-16T03:38:36.134Z,94792.28
2023-03-16T03:41:05.220Z,94792.84
2023-03-16T03:43:34.808Z,94799.92
2023-03-16T03:46:04.231Z,94800.08
2023-03-16T03:48:34.344Z,94805.15
2023-03-16T03:51:02.607Z,94812.62
2023-03-16T03:54:06.240Z,94813.75
2023-03-16T03:57:04.461Z,94815.85
2023-03-16T03:59:32.658Z,94818.95
2023-03-16T04:02:21.439Z,94820.33
2023-03-16T04:04:52.115Z,94824.95
2023-03-16T04:07:20.246Z,94828.09
2023-03-16T04:09:48.415Z,94829.20
2023-03-16T04:12:39.499Z,94830.09
2023-03-16T04:15:09.941Z,94832.73
2023-03-16T04:17:46.081Z,94836.09
2023-03-16T04:20:19.169Z,94840.02
2023-03-16T04:22:47.787Z,94842.55
2023-03-16T04:25:18.079Z,94845.55
2023-03-16T04:27:47.029Z,94848.77
2023-03-16T04:30:16.295Z,94849.60
2023-03-16T04:32:47.851Z,94854.64
2023-03-16T04:35:18.754Z,94856.75
2023-03-16T04:37:50.253Z,94863.52
2023-03-16T04:40:19.523Z,94864.04
2023-03-16T04:42:52.157Z,94869.20
2023-03-16T04:45:21.500Z,94874.59
2023-03-16T04:47:50.822Z,94874.92
2023-03-16T04:50:18.960Z,94879.98
2023-03-16T04:52:51.636Z,94882.06
2023-03-16T04:55:19.824Z,94886.27
2023-03-16T04:57:48.743Z,94885.52
2023-03-16T05:00:20.800Z,94891.50
2023-03-16T05:02:55.922Z,94893.25
2023-03-16T05:05:24.098Z,94895.83
2023-03-16T05:07:52.525Z,94899.21
2023-03-16T05:10:22.007Z,94901.71
2023-03-16T05:12:50.015Z,94902.44
2023-03-16T05:15:18.356Z,94905.52
2023-03-16T05:17:56.199Z,94909.52
2023-03-16T05:20:24.859Z,94910.84
2023-03-16T05:22:55.281Z,94907.73
2023-03-16T05:25:32.270Z,94909.98
2023-03-16T05:28:03.767Z,94913.88
2023-03-16T05:30:45.451Z,94920.27
2023-03-16T05:33:16.806Z,94928.02
2023-03-16T05:35:45.330Z,94926.24
2023-03-16T05:38:14.022Z,94931.40
2023-03-16T05:40:42.457Z,94937.23
2023-03-16T05:43:16.720Z,94940.81
2023-03-16T05:45:49.424Z,94942.44
2023-03-16T05:48:21.205Z,94946.77
2023-03-16T05:50:53.942Z,94950.14
2023-03-16T05:53:29.020Z,94957.64
2023-03-16T05:56:02.234Z,94962.48
2023-03-16T05:58:34.417Z,94963.73
2023-03-16T06:01:05.854Z,94964.62
2023-03-16T06:03:34.359Z,94973.16
2023-03-16T06:06:02.887Z,94979.23
2023-03-16T06:08:34.293Z,94981.18
2023-03-16T06:11:08.905Z,94985.07
2023-03-16T06:13:38.459Z,94988.39
2023-03-16T06:16:06.963Z,94991.58
2023-03-16T06:18:36.189Z,94997.02
2023-03-16T06:21:04.498Z,94998.73
2023-03-16T06:23:34.139Z,95000.50
2023-03-16T06:26:02.589Z,94998.77
2023-03-16T06:28:31.835Z,95004.17
2023-03-16T06:31:00.420Z,95004.07
2023-03-16T06:33:31.651Z,95005.27
2023-03-16T06:35:59.882Z,95009.34
2023-03-16T06:38:33.808Z,95020.31
2023-03-16T06:41:11.176Z,95021.91
2023-03-16T06:43:40.818Z,95025.43
2023-03-16T06:46:09.405Z,95030.13
2023-03-16T06:48:37.567Z,95033.54
2023-03-16T06:51:07.715Z,95040.40
2023-03-16T06:53:36.208Z,95046.20
2023-03-16T06:56:05.099Z,95047.94
2023-03-16T06:58:36.403Z,95053.02
2023-03-16T07:01:04.975Z,95055.07
2023-03-16T07:03:33.104Z,95056.77
2023-03-16T07:06:06.979Z,95061.82
2023-03-16T07:08:35.765Z,95064.81
2023-03-16T07:11:04.658Z,95072.96
2023-03-16T07:13:34.174Z,95073.27
2023-03-16T07:16:02.619Z,95076.17
2023-03-16T07:18:32.896Z,95079.58
2023-03-16T07:21:01.296Z,95083.23
2023-03-16T07:23:30.410Z,95085.77
2023-03-16T07:26:03.811Z,95085.16
2023-03-16T07:28:32.557Z,95090.00
2023-03-16T07:31:04.231Z,95091.48
2023-03-16T07:33:39.220Z,95095.01
2023-03-16T07:36:10.999Z,95096.63
2023-03-16T07:38:43.528Z,95098.46
2023-03-16T07:41:12.202Z,95102.39
2023-03-16T07:43:40.540Z,95102.22
2023-03-16T07:46:14.013Z,95107.21
2023-03-16T07:48:44.785Z,95102.86
2023-03-16T07:51:14.216Z,95105.78
2023-03-16T07:53:43.443Z,95111.40
2023-03-16T07:56:28.328Z,95117.01
2023-03-16T07:58:59.925Z,95119.13
2023-03-16T08:01:28.357Z,95121.96
2023-03-16T08:03:56.663Z,95123.67
2023-03-16T08:06:26.061Z,95126.93
2023-03-16T08:08:54.928Z,95128.38
2023-03-16T08:11:31.461Z,95135.81
2023-03-16T08:14:02.587Z,95135.34
2023-03-16T08:16:45.958Z,95137.19
2023-03-16T08:19:14.813Z,95139.00
2023-03-16T08:22:00.409Z,95142.38
2023-03-16T08:24:32.884Z,95142.31
2023-03-16T08:27:01.550Z,95148.77
2023-03-16T08:29:30.822Z,95149.11
2023-03-16T08:31:59.062Z,95152.03
2023-03-16T08:34:32.059Z,95157.60
2023-03-16T08:37:01.582Z,95157.48
2023-03-16T08:39:30.599Z,95164.52
2023-03-16T08:41:58.991Z,95167.31
2023-03-16T08:44:36.462Z,95167.31
2023-03-16T08:47:05.288Z,95169.38
2023-03-16T08:49:34.954Z,95174.98
2023-03-16T08:52:13.078Z,95177.64
2023-03-16T08:54:49.662Z,95180.36
2023-03-16T08:57:18.283Z,95180.23
2023-03-16T08:59:46.584Z,95184.23
2023-03-16T09:02:14.901Z,95190.35
2023-03-16T09:04:43.789Z,95191.45
2023-03-16T09:07:13.016Z,95195.03
2023-03-16T09:09:41.217Z,95197.10
2023-03-16T09:12:09.559Z,95197.96
2023-03-16T09:14:38.694Z,95201.52
2023-03-16T09:17:12.033Z,95198.86
2023-03-16T09:19:51.009Z,95205.85
2023-03-16T09:22:26.262Z,95208.46
2023-03-16T09:24:54.956Z,95212.44
2023-03-16T09:27:23.375Z,95217.42
2023-03-16T09:29:53.181Z,95221.06
2023-03-16T09:32:21.897Z,95219.00
2023-03-16T09:34:50.710Z,95225.27
2023-03-16T09:37:19.186Z,95227.41
2023-03-16T09:39:48.690Z,95227.09
2023-03-16T09:42:25.241Z,95235.27
2023-03-16T09:45:18.664Z,95233.84
2023-03-16T09:47:50.660Z,95241.33
2023-03-16T09:50:30.362Z,95247.46
2023-03-16T09:53:30.981Z,95248.12
2023-03-16T09:56:04.313Z,95252.05
2023-03-16T09:58:33.065Z,95254.34
2023-03-16T10:01:16.495Z,95246.18
2023-03-16T10:04:30.066Z,95256.85
2023-03-16T10:07:04.456Z,95262.45
2023-03-16T10:09:58.358Z,95263.04
2023-03-16T10:12:32.848Z,95266.46
2023-03-16T10:15:07.583Z,95269.42
2023-03-16T10:17:41.741Z,95269.00
2023-03-16T10:20:22.111Z,95274.31
2023-03-16T10:22:52.805Z,95275.75
2023-03-16T10:25:39.298Z,95276.11
2023-03-16T10:28:07.598Z,95280.81
2023-03-16T10:30:38.823Z,95281.34
2023-03-16T10:33:31.604Z,95283.94
2023-03-16T10:36:12.866Z,95289.23
2023-03-16T10:38:46.945Z,95292.28
2023-03-16T10:41:18.131Z,95297.02
2023-03-16T10:43:49.684Z,95301.62
2023-03-16T10:46:18.985Z,95297.27
2023-03-16T10:49:01.529Z,95296.28
2023-03-16T10:51:33.923Z,95297.95
2023-03-16T10:54:31.915Z,95298.36
2023-03-16T10:57:00.771Z,95304.32
2023-03-16T10:59:34.479Z,95303.17
2023-03-16T11:02:15.755Z,95304.50
2023-03-16T11:04:44.243Z,95298.38
2023-03-16T11:07:17.586Z,95300.77
2023-03-16T11:09:47.966Z,95303.80
2023-03-16T11:12:30.633Z,95301.83
2023-03-16T11:15:20.091Z,95297.20
2023-03-16T11:17:54.854Z,95304.10
2023-03-16T11:20:30.835Z,95306.59
2023-03-16T11:23:00.860Z,95304.59
2023-03-16T11:25:41.617Z,95304.11
2023-03-16T11:28:17.868Z,95305.43
2023-03-16T11:31:01.533Z,95306.94
2023-03-16T11:33:31.228Z,95307.73
2023-03-16T11:36:18.972Z,95308.20
2023-03-16T11:39:10.947Z,95314.38
2023-03-16T11:41:57.577Z,95319.05
2023-03-16T11:44:42.625Z,95321.19
2023-03-16T11:47:37.088Z,95322.67
2023-03-16T11:50:15.683Z,95327.84
2023-03-16T11:53:00.534Z,95333.34
2023-03-16T11:55:34.786Z,95335.61
2023-03-16T11:58:32.654Z,95331.73
2023-03-16T12:01:16.474Z,95331.30
2023-03-16T12:04:10.418Z,95333.68
2023-03-16T12:07:03.332Z,95332.85
2023-03-16T12:09:51.496Z,95336.98
2023-03-16T12:12:35.743Z,95339.63
2023-03-16T12:15:18.340Z,95341.80
2023-03-16T12:17:48.586Z,95342.38
2023-03-16T12:20:25.089Z,95343.67
2023-03-16T12:23:22.847Z,95344.14
2023-03-16T12:25:53.669Z,95351.71
2023-03-16T12:28:25.518Z,95350.04
2023-03-16T12:31:02.384Z,95354.05
2023-03-16T12:34:08.558Z,95352.72
2023-03-16T12:37:03.045Z,95355.83
2023-03-16T12:39:51.852Z,95358.14
2023-03-16T12:42:45.050Z,95355.45
2023-03-16T12:45:37.314Z,95354.58
2023-03-16T12:48:18.018Z,95359.77
2023-03-16T12:51:03.361Z,95361.98
2023-03-16T12:53:46.077Z,95360.71
2023-03-16T12:56:19.738Z,95364.53
2023-03-16T12:58:51.485Z,95372.35
2023-03-16T13:01:28.773Z,95372.70
2023-03-16T13:04:07.139Z,95371.76
2023-03-16T13:06:36.717Z,95371.02
2023-03-16T13:09:07.389Z,95378.14
2023-03-16T13:11:50.431Z,95381.11
2023-03-16T13:14:38.248Z,95385.88
2023-03-16T13:17:24.312Z,95384.33
2023-03-16T13:20:00.477Z,95387.52
2023-03-16T13:22:43.346Z,95390.27
2023-03-16T13:25:23.425Z,95394.39
2023-03-16T13:27:59.256Z,95399.52
2023-03-16T13:30:31.005Z,95397.85
2023-03-16T13:33:27.980Z,95403.23
2023-03-16T13:35:59.290Z,95402.08
2023-03-16T13:38:31.451Z,95405.74
2023-03-16T13:41:06.180Z,95406.41
2023-03-16T13:43:38.289Z,95410.77
2023-03-16T13:46:18.709Z,95409.77
2023-03-16T13:48:49.990Z,95410.55
2023-03-16T13:51:22.932Z,95408.41
2023-03-16T13:53:51.905Z,95414.48
2023-03-16T13:56:27.226Z,95416.26
2023-03-16T13:58:58.820Z,95417.40
2023-03-16T14:01:32.351Z,95417.70
2023-03-16T14:04:08.940Z,95413.82
2023-03-16T14:06:37.997Z,95416.00
2023-03-16T14:09:13.198Z,95420.52
2023-03-16T14:11:42.968Z,95422.56
2023-03-16T14:14:25.392Z,95427.52
2023-03-16T14:16:54.887Z,95430.04
2023-03-16T14:19:32.248Z,95432.19
2023-03-16T14:22:07.093Z,95431.76
2023-03-16T14:24:39.566Z,95432.31
2023-03-16T14:27:17.975Z,95434.35
2023-03-16T14:30:00.734Z,95434.17
2023-03-16T14:32:32.809Z,95439.47
2023-03-16T14:35:18.039Z,95439.88
2023-03-16T14:37:52.787Z,95442.23
2023-03-16T14:40:31.128Z,95444.92
2023-03-16T14:43:03.821Z,95444.55
2023-03-16T14:45:36.362Z,95446.51
2023-03-16T14:48:17.236Z,95450.10
2023-03-16T14:50:46.035Z,95454.75
2023-03-16T14:53:14.407Z,95451.75
2023-03-16T14:55:43.364Z,95451.40
2023-03-16T14:58:12.238Z,95459.85
2023-03-16T15:00:52.297Z,95458.16
2023-03-16T15:03:30.614Z,95457.17
2023-03-16T15:05:59.335Z,95458.73
2023-03-16T15:08:32.237Z,95459.64
2023-03-16T15:11:05.166Z,95466.50
2023-03-16T15:13:53.473Z,95465.83
2023-03-16T15:16:23.206Z,95470.66
2023-03-16T15:18:52.097Z,95467.61
2023-03-16T15:21:23.387Z,95473.48
2023-03-16T15:23:51.684Z,95474.02
2023-03-16T15:26:27.509Z,95478.64
2023-03-16T15:28:57.669Z,95482.55
2023-03-16T15:31:26.827Z,95485.61
2023-03-16T15:33:55.392Z,95490.56
2023-03-16T15:36:25.090Z,95494.28
2023-03-16T15:38:55.524Z,95497.08
2023-03-16T15:41:30.104Z,95501.11
2023-03-16T15:44:01.578Z,95507.23
2023-03-16T15:46:29.887Z,95510.77
2023-03-16T15:48:58.009Z,95516.83
2023-03-16T15:51:30.297Z,95521.49
2023-03-16T15:54:02.430Z,95525.69
2023-03-16T15:56:44.047Z,95530.55
2023-03-16T15:59:19.305Z,95533.91
2023-03-16T16:01:48.552Z,95534.96
2023-03-16T16:04:23.748Z,95537.96
2023-03-16T16:06:55.322Z,95544.31
2023-03-16T16:09:23.979Z,95543.26
2023-03-16T16:11:52.196Z,95545.54
2023-03-16T16:14:25.613Z,95550.30
2023-03-16T16:16:54.626Z,95552.11
2023-03-16T16:19:22.967Z,95559.59
2023-03-16T16:21:51.215Z,95561.85
2023-03-16T16:24:19.450Z,95566.57
2023-03-16T16:26:54.663Z,95564.83
2023-03-16T16:29:27.198Z,95577.09
2023-03-16T16:31:55.607Z,95573.05
2023-03-16T16:34:25.302Z,95581.31
2023-03-16T16:36:55.724Z,95581.67
2023-03-16T16:39:24.764Z,95585.20
2023-03-16T16:41:55.056Z,95589.70
2023-03-16T16:44:27.414Z,95592.65
2023-03-16T16:46:56.116Z,95595.70
2023-03-16T16:49:26.020Z,95598.81
2023-03-16T16:51:54.532Z,95602.10
2023-03-16T16:54:26.270Z,95608.34
2023-03-16T16:56:56.384Z,95612.89
2023-03-16T16:59:33.681Z,95612.64
2023-03-16T17:02:13.017Z,95617.34
2023-03-16T17:04:41.505Z,95619.80
2023-03-16T17:07:11.687Z,95626.01
2023-03-16T17:09:40.127Z,95625.00
2023-03-16T17:12:21.408Z,95619.70
2023-03-16T17:14:50.748Z,95627.98
2023-03-16T17:17:18.994Z,95627.60
2023-03-16T17:19:48.259Z,95626.80
2023-03-16T17:22:28.527Z,95634.40
2023-03-16T17:24:57.132Z,95640.89
2023-03-16T17:27:29.715Z,95642.98
2023-03-16T17:29:58.611Z,95645.88
2023-03-16T17:32:26.964Z,95646.95
2023-03-16T17:34:55.179Z,95650.79
2023-03-16T17:37:23.356Z,95652.79
2023-03-16T17:39:52.093Z,95655.94
2023-03-16T17:42:20.431Z,95654.55
2023-03-16T17:44:53.054Z,95656.08
2023-03-16T17:47:24.203Z,95658.51
2023-03-16T17:49:52.705Z,95662.56
2023-03-16T17:52:23.727Z,95662.41
2023-03-16T17:54:53.586Z,95667.77
2023-03-16T17:57:28.324Z,95670.10
2023-03-16T17:59:56.992Z,95671.72
2023-03-16T18:02:50.688Z,95674.84
2023-03-16T18:05:22.817Z,95671.05
2023-03-16T18:07:52.015Z,95677.07
2023-03-16T18:10:24.350Z,95679.16
2023-03-16T18:12:59.647Z,95682.72
2023-03-16T18:15:31.387Z,95682.88
2023-03-16T18:18:00.847Z,95682.97
2023-03-16T18:20:34.454Z,95686.42
2023-03-16T18:23:15.445Z,95686.90
2023-03-16T18:25:44.276Z,95687.64
2023-03-16T18:32:52.079Z,95685.48
2023-03-16T18:35:21.635Z,95689.77
2023-03-16T18:37:50.964Z,95687.27
2023-03-16T18:40:19.704Z,95690.80
2023-03-16T18:42:47.875Z,95692.04
2023-03-16T18:45:16.692Z,95692.77
2023-03-16T18:47:55.689Z,95695.64
2023-03-16T18:50:28.211Z,95701.14
2023-03-16T18:52:57.515Z,95703.11
2023-03-16T18:55:26.177Z,95701.77
2023-03-16T18:57:57.559Z,95705.50
2023-03-16T19:00:27.227Z,95706.67
2023-03-16T19:02:59.546Z,95709.92
2023-03-16T19:05:36.968Z,95712.42
2023-03-16T19:08:06.870Z,95715.49
2023-03-16T19:10:47.116Z,95713.10
2023-03-16T19:13:19.405Z,95715.21
2023-03-16T19:15:49.057Z,95720.77
2023-03-16T19:18:17.382Z,95721.67
2023-03-16T19:20:50.041Z,95728.38
2023-03-16T19:23:34.177Z,95729.14
2023-03-16T19:26:03.041Z,95732.83
2023-03-16T19:28:36.791Z,95737.48
2023-03-16T19:31:24.219Z,95737.27
2023-03-16T19:33:52.886Z,95740.40
2023-03-16T19:36:31.755Z,95748.93
2023-03-16T19:39:00.254Z,95750.96
2023-03-16T19:41:32.986Z,95756.18
2023-03-16T19:44:26.364Z,95755.48
2023-03-16T19:46:55.186Z,95759.10
2023-03-16T19:49:24.890Z,95763.20
2023-03-16T19:51:54.856Z,95768.43
2023-03-16T19:54:26.221Z,95771.42
2023-03-16T19:56:56.806Z,95770.96
2023-03-16T19:59:28.754Z,95765.88
2023-03-16T20:01:57.057Z,95770.39
2023-03-16T20:04:26.832Z,95773.81
2023-03-16T20:06:56.420Z,95777.26
2023-03-16T20:09:24.638Z,95780.31
2023-03-16T20:11:52.694Z,95779.41
2023-03-16T20:14:27.346Z,95782.08
2023-03-16T20:16:56.096Z,95786.19
2023-03-16T20:19:24.752Z,95785.91
2023-03-16T20:21:52.910Z,95787.36
2023-03-16T20:24:22.267Z,95789.94
2023-03-16T20:26:51.561Z,95791.35
2023-03-16T20:29:33.449Z,95790.52
2023-03-16T20:32:03.684Z,95793.05
2023-03-16T20:34:32.310Z,95792.79
2023-03-16T20:37:00.640Z,95793.11
2023-03-16T20:39:28.720Z,95794.61
2023-03-16T20:41:57.169Z,95792.08
2023-03-16T20:44:26.697Z,95796.99
2023-03-16T20:46:54.764Z,95799.11
2023-03-16T20:49:22.974Z,95798.02
2023-03-16T20:51:51.553Z,95805.50
2023-03-16T20:54:19.619Z,95806.17
2023-03-16T20:56:48.293Z,95809.04
2023-03-16T20:59:24.851Z,95810.99
2023-03-16T21:01:55.742Z,95816.09
2023-03-16T21:04:27.618Z,95811.16
2023-03-16T21:06:56.861Z,95808.29
2023-03-16T21:09:25.082Z,95809.16
2023-03-16T21:11:53.244Z,95807.02
2023-03-16T21:14:23.400Z,95811.84
2023-03-16T21:16:53.221Z,95809.27
2023-03-16T21:19:23.383Z,95807.64
2023-03-16T21:21:51.669Z,95809.99
2023-03-16T21:24:19.948Z,95811.06
2023-03-16T21:26:48.686Z,95812.36
2023-03-16T21:29:24.289Z,95807.21
2023-03-16T21:31:52.840Z,95814.88
2023-03-16T21:34:25.443Z,95814.45
2023-03-16T21:36:53.674Z,95817.95
2023-03-16T21:39:25.160Z,95814.91
2023-03-16T21:41:53.757Z,95816.34
2023-03-16T21:44:21.973Z,95820.16
2023-03-16T21:46:51.078Z,95823.54
2023-03-16T21:49:19.879Z,95827.92
2023-03-16T21:51:50.182Z,95826.89
2023-03-16T21:54:19.368Z,95828.66
2023-03-16T21:56:50.424Z,95825.52
2023-03-16T21:59:18.580Z,95832.08
2023-03-16T22:02:00.733Z,95827.45
2023-03-16T22:04:29.878Z,95832.71
2023-03-16T22:06:58.010Z,95836.60
2023-03-16T22:09:30.321Z,95841.79
2023-03-16T22:11:58.717Z,95844.89
2023-03-16T22:14:27.364Z,95838.95
2023-03-16T22:16:56.597Z,95842.54
2023-03-16T22:19:27.389Z,95843.50
2023-03-16T22:21:56.975Z,95847.13
2023-03-16T22:24:28.378Z,95839.70
2023-03-16T22:26:58.199Z,95842.86
2023-03-16T22:29:31.749Z,95837.31
2023-03-16T22:32:04.572Z,95842.71
2023-03-16T22:34:41.726Z,95843.30
2023-03-16T22:37:13.282Z,95844.30
2023-03-16T22:39:41.588Z,95844.42
2023-03-16T22:42:27.082Z,95844.96
2023-03-16T22:44:56.245Z,95844.52
2023-03-16T22:47:28.008Z,95847.80
2023-03-16T22:49:56.083Z,95848.67
2023-03-16T22:52:30.328Z,95848.20
2023-03-16T22:55:01.515Z,95846.58
2023-03-16T22:57:31.039Z,95847.13
2023-03-16T23:00:07.184Z,95850.49
2023-03-16T23:02:35.267Z,95854.04
2023-03-16T23:05:19.307Z,95857.70
2023-03-16T23:07:48.068Z,95863.29
2023-03-16T23:10:21.278Z,95866.06
2023-03-16T23:12:50.650Z,95873.41
2023-03-16T23:15:23.298Z,95876.66
2023-03-16T23:17:52.504Z,95879.39
2023-03-16T23:20:32.678Z,95884.80
2023-03-16T23:23:00.969Z,95882.95
2023-03-16T23:25:29.139Z,95887.35
2023-03-16T23:27:59.005Z,95885.81
2023-03-16T23:30:27.468Z,95887.23
2023-03-16T23:32:56.950Z,95892.52
2023-03-16T23:35:30.986Z,95894.73
2023-03-16T23:37:59.358Z,95897.27
2023-03-16T23:40:29.196Z,95895.26
2023-03-16T23:43:00.766Z,95897.06
2023-03-16T23:45:38.561Z,95894.50
2023-03-16T23:48:13.717Z,95894.16
2023-03-16T23:50:42.726Z,95896.45
2023-03-16T23:53:17.654Z,95897.79
2023-03-16T23:55:47.264Z,95898.45
2023-03-16T23:58:18.604Z,95908.25
